sensor_id;sensor_type;location;lat;lon;timestamp;P1;P2;P0
72307;PMS5003;60257;42.638;23.376;2023-09-08T00:00:55;38.00;34.50;21.50
72307;PMS5003;60257;42.638;23.376;2023-09-08T00:03:21;27.00;26.50;19.00
72307;PMS5003;60257;42.638;23.376;2023-09-08T00:05:46;33.00;32.25;21.75
72307;PMS5003;60257;42.638;23.376;2023-09-08T00:08:12;34.25;33.00;21.25
72307;PMS5003;60257;42.638;23.376;2023-09-08T00:10:37;34.75;33.00;21.25
72307;PMS5003;60257;42.638;23.376;2023-09-08T00:13:03;28.75;27.50;15.50
72307;PMS5003;60257;42.638;23.376;2023-09-08T00:15:28;29.50;27.25;19.50
72307;PMS5003;60257;42.638;23.376;2023-09-08T00:17:54;36.00;33.00;21.25
72307;PMS5003;60257;42.638;23.376;2023-09-08T00:20:21;31.25;29.75;19.75
72307;PMS5003;60257;42.638;23.376;2023-09-08T00:22:47;24.25;24.25;18.75
72307;PMS5003;60257;42.638;23.376;2023-09-08T00:25:12;24.25;23.75;18.25
72307;PMS5003;60257;42.638;23.376;2023-09-08T00:27:38;28.00;25.50;16.25
72307;PMS5003;60257;42.638;23.376;2023-09-08T00:30:04;23.25;23.25;15.25
72307;PMS5003;60257;42.638;23.376;2023-09-08T00:32:30;22.25;22.25;15.25
72307;PMS5003;60257;42.638;23.376;2023-09-08T00:34:55;20.50;20.50;17.00
72307;PMS5003;60257;42.638;23.376;2023-09-08T00:37:21;23.50;23.50;16.50
72307;PMS5003;60257;42.638;23.376;2023-09-08T00:39:46;24.50;22.50;16.25
72307;PMS5003;60257;42.638;23.376;2023-09-08T00:42:12;23.00;20.50;13.75
72307;PMS5003;60257;42.638;23.376;2023-09-08T00:44:37;23.00;21.50;13.50
72307;PMS5003;60257;42.638;23.376;2023-09-08T00:47:03;19.50;19.50;12.25
72307;PMS5003;60257;42.638;23.376;2023-09-08T00:49:28;23.25;21.25;13.00
72307;PMS5003;60257;42.638;23.376;2023-09-08T00:51:59;17.00;17.00;10.00
72307;PMS5003;60257;42.638;23.376;2023-09-08T00:54:31;20.75;18.25;11.00
72307;PMS5003;60257;42.638;23.376;2023-09-08T00:56:56;20.25;18.75;11.00
72307;PMS5003;60257;42.638;23.376;2023-09-08T00:59:22;20.25;19.50;13.25
72307;PMS5003;60257;42.638;23.376;2023-09-08T01:01:50;20.00;18.25;11.25
72307;PMS5003;60257;42.638;23.376;2023-09-08T01:04:16;21.75;20.75;15.00
72307;PMS5003;60257;42.638;23.376;2023-09-08T01:06:41;19.25;17.00;10.25
72307;PMS5003;60257;42.638;23.376;2023-09-08T01:09:07;20.75;20.75;15.00
72307;PMS5003;60257;42.638;23.376;2023-09-08T01:11:34;17.00;16.50;8.75
72307;PMS5003;60257;42.638;23.376;2023-09-08T01:14:00;16.75;16.75;10.75
72307;PMS5003;60257;42.638;23.376;2023-09-08T01:16:25;19.75;19.75;14.50
72307;PMS5003;60257;42.638;23.376;2023-09-08T01:18:51;26.75;21.75;12.25
72307;PMS5003;60257;42.638;23.376;2023-09-08T01:23:59;18.00;16.25;10.75
72307;PMS5003;60257;42.638;23.376;2023-09-08T01:26:55;23.50;22.25;13.75
72307;PMS5003;60257;42.638;23.376;2023-09-08T01:29:21;19.25;17.75;11.50
72307;PMS5003;60257;42.638;23.376;2023-09-08T01:31:50;17.75;16.75;10.75
72307;PMS5003;60257;42.638;23.376;2023-09-08T01:34:16;19.75;19.75;12.50
72307;PMS5003;60257;42.638;23.376;2023-09-08T01:36:42;17.25;17.25;11.75
72307;PMS5003;60257;42.638;23.376;2023-09-08T01:39:07;17.25;17.25;11.00
72307;PMS5003;60257;42.638;23.376;2023-09-08T01:41:33;20.00;19.75;12.75
72307;PMS5003;60257;42.638;23.376;2023-09-08T01:43:59;10.25;10.25;7.25
72307;PMS5003;60257;42.638;23.376;2023-09-08T01:46:25;20.25;18.25;11.25
72307;PMS5003;60257;42.638;23.376;2023-09-08T01:48:50;17.50;16.00;10.25
72307;PMS5003;60257;42.638;23.376;2023-09-08T01:51:16;18.25;18.00;11.25
72307;PMS5003;60257;42.638;23.376;2023-09-08T01:53:41;20.50;17.50;11.75
72307;PMS5003;60257;42.638;23.376;2023-09-08T01:56:06;15.75;13.00;8.75
72307;PMS5003;60257;42.638;23.376;2023-09-08T02:01:29;21.50;21.50;13.00
72307;PMS5003;60257;42.638;23.376;2023-09-08T02:03:55;17.25;17.25;11.75
72307;PMS5003;60257;42.638;23.376;2023-09-08T02:06:20;20.00;19.25;12.50
72307;PMS5003;60257;42.638;23.376;2023-09-08T02:08:46;21.50;19.50;12.25
72307;PMS5003;60257;42.638;23.376;2023-09-08T02:11:12;17.75;17.50;10.50
72307;PMS5003;60257;42.638;23.376;2023-09-08T02:13:38;21.00;21.00;12.00
72307;PMS5003;60257;42.638;23.376;2023-09-08T02:16:07;21.75;21.00;14.00
72307;PMS5003;60257;42.638;23.376;2023-09-08T02:18:33;21.00;21.00;12.75
72307;PMS5003;60257;42.638;23.376;2023-09-08T02:20:58;21.25;19.75;10.75
72307;PMS5003;60257;42.638;23.376;2023-09-08T02:23:24;21.25;21.25;13.50
72307;PMS5003;60257;42.638;23.376;2023-09-08T02:25:49;23.50;23.50;14.25
72307;PMS5003;60257;42.638;23.376;2023-09-08T02:28:15;19.75;19.25;12.25
72307;PMS5003;60257;42.638;23.376;2023-09-08T02:30:40;17.75;16.25;12.00
72307;PMS5003;60257;42.638;23.376;2023-09-08T02:33:06;19.25;17.50;11.25
72307;PMS5003;60257;42.638;23.376;2023-09-08T02:35:35;19.00;19.00;13.00
72307;PMS5003;60257;42.638;23.376;2023-09-08T02:38:01;19.25;19.25;12.25
72307;PMS5003;60257;42.638;23.376;2023-09-08T02:40:27;14.00;14.00;9.00
72307;PMS5003;60257;42.638;23.376;2023-09-08T02:42:52;22.00;20.75;14.00
72307;PMS5003;60257;42.638;23.376;2023-09-08T02:45:18;23.00;20.75;14.00
72307;PMS5003;60257;42.638;23.376;2023-09-08T02:47:43;20.00;20.00;14.50
72307;PMS5003;60257;42.638;23.376;2023-09-08T02:50:08;19.25;19.25;12.00
72307;PMS5003;60257;42.638;23.376;2023-09-08T02:52:34;22.25;22.25;14.00
72307;PMS5003;60257;42.638;23.376;2023-09-08T02:55:00;20.75;20.75;14.50
72307;PMS5003;60257;42.638;23.376;2023-09-08T02:57:26;19.50;19.50;13.50
72307;PMS5003;60257;42.638;23.376;2023-09-08T02:59:52;22.50;18.75;14.00
72307;PMS5003;60257;42.638;23.376;2023-09-08T03:02:17;22.25;20.75;14.00
72307;PMS5003;60257;42.638;23.376;2023-09-08T03:04:43;20.75;20.75;14.50
72307;PMS5003;60257;42.638;23.376;2023-09-08T03:07:08;15.50;15.50;9.50
72307;PMS5003;60257;42.638;23.376;2023-09-08T03:09:34;26.00;20.75;14.25
72307;PMS5003;60257;42.638;23.376;2023-09-08T03:11:59;17.75;17.25;11.25
72307;PMS5003;60257;42.638;23.376;2023-09-08T03:14:25;19.50;19.50;12.50
72307;PMS5003;60257;42.638;23.376;2023-09-08T03:16:50;23.00;22.00;14.00
72307;PMS5003;60257;42.638;23.376;2023-09-08T03:19:16;30.50;28.25;17.50
72307;PMS5003;60257;42.638;23.376;2023-09-08T03:21:41;25.25;23.75;13.75
72307;PMS5003;60257;42.638;23.376;2023-09-08T03:24:07;29.50;25.50;15.50
72307;PMS5003;60257;42.638;23.376;2023-09-08T03:26:32;27.00;26.75;17.50
72307;PMS5003;60257;42.638;23.376;2023-09-08T03:28:57;22.50;22.00;14.25
72307;PMS5003;60257;42.638;23.376;2023-09-08T03:31:23;23.75;22.75;15.25
72307;PMS5003;60257;42.638;23.376;2023-09-08T03:33:48;27.00;27.00;19.25
72307;PMS5003;60257;42.638;23.376;2023-09-08T03:36:14;27.25;26.25;16.75
72307;PMS5003;60257;42.638;23.376;2023-09-08T03:38:39;25.75;22.00;15.50
72307;PMS5003;60257;42.638;23.376;2023-09-08T03:41:06;25.50;25.50;17.00
72307;PMS5003;60257;42.638;23.376;2023-09-08T03:43:31;29.00;27.75;17.75
72307;PMS5003;60257;42.638;23.376;2023-09-08T03:45:57;20.00;20.00;14.00
72307;PMS5003;60257;42.638;23.376;2023-09-08T03:48:22;26.50;25.50;16.75
72307;PMS5003;60257;42.638;23.376;2023-09-08T03:50:48;28.75;27.00;18.00
72307;PMS5003;60257;42.638;23.376;2023-09-08T03:53:14;27.00;26.25;17.00
72307;PMS5003;60257;42.638;23.376;2023-09-08T03:55:39;25.00;22.75;17.50
72307;PMS5003;60257;42.638;23.376;2023-09-08T03:58:05;24.75;24.50;15.75
72307;PMS5003;60257;42.638;23.376;2023-09-08T04:00:30;28.75;28.00;17.50
72307;PMS5003;60257;42.638;23.376;2023-09-08T04:02:56;25.50;25.50;15.75
72307;PMS5003;60257;42.638;23.376;2023-09-08T04:05:22;26.00;26.00;13.33
72307;PMS5003;60257;42.638;23.376;2023-09-08T04:07:47;28.67;27.67;19.67
72307;PMS5003;60257;42.638;23.376;2023-09-08T04:10:13;24.33;24.00;16.00
72307;PMS5003;60257;42.638;23.376;2023-09-08T04:12:41;22.67;19.33;11.00
72307;PMS5003;60257;42.638;23.376;2023-09-08T04:15:08;30.67;28.33;16.67
72307;PMS5003;60257;42.638;23.376;2023-09-08T04:17:34;30.00;30.00;21.00
72307;PMS5003;60257;42.638;23.376;2023-09-08T04:20:01;28.33;25.33;18.00
72307;PMS5003;60257;42.638;23.376;2023-09-08T04:22:30;27.33;26.33;17.67
72307;PMS5003;60257;42.638;23.376;2023-09-08T04:24:56;27.00;24.67;16.33
72307;PMS5003;60257;42.638;23.376;2023-09-08T04:27:22;30.67;30.67;20.33
72307;PMS5003;60257;42.638;23.376;2023-09-08T04:29:48;30.33;30.33;19.00
72307;PMS5003;60257;42.638;23.376;2023-09-08T04:32:13;33.00;32.33;21.00
72307;PMS5003;60257;42.638;23.376;2023-09-08T04:34:39;33.67;30.67;20.00
72307;PMS5003;60257;42.638;23.376;2023-09-08T04:37:07;34.33;33.33;18.33
72307;PMS5003;60257;42.638;23.376;2023-09-08T04:39:33;28.00;28.00;19.33
72307;PMS5003;60257;42.638;23.376;2023-09-08T04:41:59;33.33;32.00;21.67
72307;PMS5003;60257;42.638;23.376;2023-09-08T04:44:25;21.33;18.67;18.33
72307;PMS5003;60257;42.638;23.376;2023-09-08T04:46:51;33.67;31.00;20.67
72307;PMS5003;60257;42.638;23.376;2023-09-08T04:49:17;30.33;30.33;21.67
72307;PMS5003;60257;42.638;23.376;2023-09-08T04:51:43;34.00;32.67;20.67
72307;PMS5003;60257;42.638;23.376;2023-09-08T04:54:09;28.33;28.33;19.00
72307;PMS5003;60257;42.638;23.376;2023-09-08T04:56:35;32.00;30.33;21.33
72307;PMS5003;60257;42.638;23.376;2023-09-08T04:59:01;26.33;25.67;15.67
72307;PMS5003;60257;42.638;23.376;2023-09-08T05:01:30;24.00;18.67;10.00
72307;PMS5003;60257;42.638;23.376;2023-09-08T05:03:57;25.50;24.00;16.75
72307;PMS5003;60257;42.638;23.376;2023-09-08T05:06:24;28.25;26.75;17.25
72307;PMS5003;60257;42.638;23.376;2023-09-08T05:08:49;26.75;26.25;17.00
72307;PMS5003;60257;42.638;23.376;2023-09-08T05:11:15;26.00;24.25;16.00
72307;PMS5003;60257;42.638;23.376;2023-09-08T05:13:41;24.75;23.75;17.00
72307;PMS5003;60257;42.638;23.376;2023-09-08T05:16:07;22.00;21.50;14.25
72307;PMS5003;60257;42.638;23.376;2023-09-08T05:18:44;25.50;25.50;15.75
72307;PMS5003;60257;42.638;23.376;2023-09-08T05:21:09;18.75;17.50;11.25
72307;PMS5003;60257;42.638;23.376;2023-09-08T05:23:35;23.25;21.50;15.50
72307;PMS5003;60257;42.638;23.376;2023-09-08T05:26:00;23.75;23.00;17.00
72307;PMS5003;60257;42.638;23.376;2023-09-08T05:28:26;24.50;24.50;17.50
72307;PMS5003;60257;42.638;23.376;2023-09-08T05:30:52;24.25;22.50;15.00
72307;PMS5003;60257;42.638;23.376;2023-09-08T05:33:18;25.50;22.25;15.00
72307;PMS5003;60257;42.638;23.376;2023-09-08T05:35:44;20.00;18.50;10.75
72307;PMS5003;60257;42.638;23.376;2023-09-08T05:38:10;19.75;17.75;11.50
72307;PMS5003;60257;42.638;23.376;2023-09-08T05:40:37;19.75;18.50;10.50
72307;PMS5003;60257;42.638;23.376;2023-09-08T05:43:03;21.50;19.75;13.50
72307;PMS5003;60257;42.638;23.376;2023-09-08T05:45:35;20.00;18.25;9.50
72307;PMS5003;60257;42.638;23.376;2023-09-08T05:48:01;26.00;23.00;17.00
72307;PMS5003;60257;42.638;23.376;2023-09-08T05:50:27;20.50;19.25;13.00
72307;PMS5003;60257;42.638;23.376;2023-09-08T05:52:53;22.50;21.75;14.00
72307;PMS5003;60257;42.638;23.376;2023-09-08T05:55:19;22.50;19.75;13.25
72307;PMS5003;60257;42.638;23.376;2023-09-08T05:57:44;21.50;20.50;13.00
72307;PMS5003;60257;42.638;23.376;2023-09-08T06:00:10;22.75;20.75;13.25
72307;PMS5003;60257;42.638;23.376;2023-09-08T06:02:37;31.00;26.75;18.25
72307;PMS5003;60257;42.638;23.376;2023-09-08T06:05:03;27.25;22.00;13.50
72307;PMS5003;60257;42.638;23.376;2023-09-08T06:07:29;23.00;21.00;13.50
72307;PMS5003;60257;42.638;23.376;2023-09-08T06:09:54;21.25;21.25;14.25
72307;PMS5003;60257;42.638;23.376;2023-09-08T06:12:21;25.50;22.25;16.00
72307;PMS5003;60257;42.638;23.376;2023-09-08T06:14:47;13.50;12.25;7.75
72307;PMS5003;60257;42.638;23.376;2023-09-08T06:17:12;19.50;18.75;12.25
72307;PMS5003;60257;42.638;23.376;2023-09-08T06:19:38;19.00;18.00;9.50
72307;PMS5003;60257;42.638;23.376;2023-09-08T06:22:04;21.50;19.00;12.25
72307;PMS5003;60257;42.638;23.376;2023-09-08T06:24:29;16.00;15.00;11.00
72307;PMS5003;60257;42.638;23.376;2023-09-08T06:26:55;14.50;14.50;11.25
72307;PMS5003;60257;42.638;23.376;2023-09-08T06:29:21;14.50;14.50;10.50
72307;PMS5003;60257;42.638;23.376;2023-09-08T06:31:47;14.75;14.75;10.25
72307;PMS5003;60257;42.638;23.376;2023-09-08T06:34:12;16.25;14.25;10.75
72307;PMS5003;60257;42.638;23.376;2023-09-08T06:36:37;13.50;12.50;9.50
72307;PMS5003;60257;42.638;23.376;2023-09-08T06:39:03;15.50;13.75;9.75
72307;PMS5003;60257;42.638;23.376;2023-09-08T06:41:29;18.25;18.00;11.00
72307;PMS5003;60257;42.638;23.376;2023-09-08T06:43:54;12.50;12.50;8.50
72307;PMS5003;60257;42.638;23.376;2023-09-08T06:46:21;17.00;14.00;9.25
72307;PMS5003;60257;42.638;23.376;2023-09-08T06:48:46;11.50;11.50;10.00
72307;PMS5003;60257;42.638;23.376;2023-09-08T06:51:12;18.50;18.50;11.50
72307;PMS5003;60257;42.638;23.376;2023-09-08T06:53:37;17.00;15.75;10.25
72307;PMS5003;60257;42.638;23.376;2023-09-08T06:56:04;19.25;17.50;11.00
72307;PMS5003;60257;42.638;23.376;2023-09-08T06:58:29;14.50;14.00;9.75
72307;PMS5003;60257;42.638;23.376;2023-09-08T07:00:55;18.00;15.25;10.75
72307;PMS5003;60257;42.638;23.376;2023-09-08T07:03:21;12.25;12.25;9.50
72307;PMS5003;60257;42.638;23.376;2023-09-08T07:05:50;14.50;12.75;9.00
72307;PMS5003;60257;42.638;23.376;2023-09-08T07:08:16;13.00;12.25;8.00
72307;PMS5003;60257;42.638;23.376;2023-09-08T07:10:43;15.50;15.50;11.00
72307;PMS5003;60257;42.638;23.376;2023-09-08T07:13:09;15.00;15.00;9.00
72307;PMS5003;60257;42.638;23.376;2023-09-08T07:15:34;12.25;12.25;8.50
72307;PMS5003;60257;42.638;23.376;2023-09-08T07:18:00;13.25;12.00;8.50
72307;PMS5003;60257;42.638;23.376;2023-09-08T07:20:25;11.50;11.50;8.00
72307;PMS5003;60257;42.638;23.376;2023-09-08T07:22:51;15.25;15.25;9.00
72307;PMS5003;60257;42.638;23.376;2023-09-08T07:25:17;7.75;7.75;6.00
72307;PMS5003;60257;42.638;23.376;2023-09-08T07:27:45;14.00;14.00;9.00
72307;PMS5003;60257;42.638;23.376;2023-09-08T07:30:11;15.75;14.50;10.00
72307;PMS5003;60257;42.638;23.376;2023-09-08T07:32:37;16.50;15.75;10.50
72307;PMS5003;60257;42.638;23.376;2023-09-08T07:35:02;18.25;16.00;9.00
72307;PMS5003;60257;42.638;23.376;2023-09-08T07:37:28;13.25;13.25;9.00
72307;PMS5003;60257;42.638;23.376;2023-09-08T07:39:54;14.50;14.25;8.25
72307;PMS5003;60257;42.638;23.376;2023-09-08T07:42:20;16.50;16.50;10.00
72307;PMS5003;60257;42.638;23.376;2023-09-08T07:44:46;12.00;12.00;8.00
72307;PMS5003;60257;42.638;23.376;2023-09-08T07:47:12;16.50;16.00;10.75
72307;PMS5003;60257;42.638;23.376;2023-09-08T07:49:38;14.75;14.75;11.25
72307;PMS5003;60257;42.638;23.376;2023-09-08T07:52:03;12.50;12.50;8.75
72307;PMS5003;60257;42.638;23.376;2023-09-08T07:54:30;13.25;13.25;8.50
72307;PMS5003;60257;42.638;23.376;2023-09-08T07:56:55;12.00;11.00;6.25
72307;PMS5003;60257;42.638;23.376;2023-09-08T07:59:21;12.50;12.00;9.00
72307;PMS5003;60257;42.638;23.376;2023-09-08T08:01:47;11.50;11.50;7.75
72307;PMS5003;60257;42.638;23.376;2023-09-08T08:04:13;11.50;11.50;9.00
72307;PMS5003;60257;42.638;23.376;2023-09-08T08:06:38;18.00;15.50;11.00
72307;PMS5003;60257;42.638;23.376;2023-09-08T08:09:04;11.75;11.75;7.50
72307;PMS5003;60257;42.638;23.376;2023-09-08T08:11:29;12.50;12.50;9.00
72307;PMS5003;60257;42.638;23.376;2023-09-08T08:13:55;7.75;6.25;3.25
72307;PMS5003;60257;42.638;23.376;2023-09-08T08:16:22;12.75;12.25;9.00
72307;PMS5003;60257;42.638;23.376;2023-09-08T08:18:48;12.50;12.25;8.25
72307;PMS5003;60257;42.638;23.376;2023-09-08T08:21:13;12.50;12.50;8.00
72307;PMS5003;60257;42.638;23.376;2023-09-08T08:23:39;13.25;11.75;8.00
72307;PMS5003;60257;42.638;23.376;2023-09-08T08:26:05;11.75;10.75;6.00
72307;PMS5003;60257;42.638;23.376;2023-09-08T08:28:31;11.50;11.50;8.25
72307;PMS5003;60257;42.638;23.376;2023-09-08T08:30:57;10.75;10.50;8.00
72307;PMS5003;60257;42.638;23.376;2023-09-08T08:33:22;15.50;13.75;8.25
72307;PMS5003;60257;42.638;23.376;2023-09-08T08:35:51;11.25;10.00;7.00
72307;PMS5003;60257;42.638;23.376;2023-09-08T08:38:20;14.75;13.25;9.00
72307;PMS5003;60257;42.638;23.376;2023-09-08T08:40:46;17.75;16.50;10.25
72307;PMS5003;60257;42.638;23.376;2023-09-08T08:43:12;12.75;12.25;8.50
72307;PMS5003;60257;42.638;23.376;2023-09-08T08:45:38;15.00;15.00;9.00
72307;PMS5003;60257;42.638;23.376;2023-09-08T08:48:06;14.75;13.25;9.00
72307;PMS5003;60257;42.638;23.376;2023-09-08T08:50:33;11.25;11.00;7.75
72307;PMS5003;60257;42.638;23.376;2023-09-08T08:53:00;11.75;11.50;8.25
72307;PMS5003;60257;42.638;23.376;2023-09-08T08:55:27;13.50;13.50;9.25
72307;PMS5003;60257;42.638;23.376;2023-09-08T08:57:55;15.50;13.75;9.00
72307;PMS5003;60257;42.638;23.376;2023-09-08T09:00:28;14.50;13.25;7.75
72307;PMS5003;60257;42.638;23.376;2023-09-08T09:02:54;10.50;10.00;7.25
72307;PMS5003;60257;42.638;23.376;2023-09-08T09:05:21;17.25;17.00;11.50
72307;PMS5003;60257;42.638;23.376;2023-09-08T09:07:47;12.50;12.50;9.00
72307;PMS5003;60257;42.638;23.376;2023-09-08T09:10:15;12.50;12.50;8.50
72307;PMS5003;60257;42.638;23.376;2023-09-08T09:12:41;11.25;10.75;10.00
72307;PMS5003;60257;42.638;23.376;2023-09-08T09:15:06;11.50;11.50;7.25
72307;PMS5003;60257;42.638;23.376;2023-09-08T09:17:33;15.00;15.00;9.00
72307;PMS5003;60257;42.638;23.376;2023-09-08T09:20:13;16.25;16.25;10.25
72307;PMS5003;60257;42.638;23.376;2023-09-08T09:22:40;8.25;8.25;5.00
72307;PMS5003;60257;42.638;23.376;2023-09-08T09:25:05;14.75;14.75;10.25
72307;PMS5003;60257;42.638;23.376;2023-09-08T09:27:32;18.25;16.50;10.00
72307;PMS5003;60257;42.638;23.376;2023-09-08T09:30:00;16.00;13.50;10.00
72307;PMS5003;60257;42.638;23.376;2023-09-08T09:32:26;13.25;13.25;9.00
72307;PMS5003;60257;42.638;23.376;2023-09-08T09:34:54;14.00;14.00;9.00
72307;PMS5003;60257;42.638;23.376;2023-09-08T09:37:20;14.75;14.75;10.25
72307;PMS5003;60257;42.638;23.376;2023-09-08T09:39:49;13.50;13.50;10.00
72307;PMS5003;60257;42.638;23.376;2023-09-08T09:42:16;13.00;12.00;11.50
72307;PMS5003;60257;42.638;23.376;2023-09-08T09:44:42;18.50;17.00;11.75
72307;PMS5003;60257;42.638;23.376;2023-09-08T09:47:08;10.75;10.75;6.75
72307;PMS5003;60257;42.638;23.376;2023-09-08T09:49:41;13.75;13.25;10.25
72307;PMS5003;60257;42.638;23.376;2023-09-08T09:52:07;15.00;15.00;11.25
72307;PMS5003;60257;42.638;23.376;2023-09-08T09:54:33;13.25;13.00;10.25
72307;PMS5003;60257;42.638;23.376;2023-09-08T09:56:58;17.75;15.50;11.50
72307;PMS5003;60257;42.638;23.376;2023-09-08T09:59:25;0.00;0.00;0.00
72307;PMS5003;60257;42.638;23.376;2023-09-08T10:01:52;16.25;13.00;9.50
72307;PMS5003;60257;42.638;23.376;2023-09-08T10:04:18;14.00;14.00;11.00
72307;PMS5003;60257;42.638;23.376;2023-09-08T10:06:44;15.25;15.00;11.00
72307;PMS5003;60257;42.638;23.376;2023-09-08T10:09:10;9.00;8.00;6.00
72307;PMS5003;60257;42.638;23.376;2023-09-08T10:11:50;15.25;13.25;10.00
72307;PMS5003;60257;42.638;23.376;2023-09-08T10:14:19;13.50;13.25;10.75
72307;PMS5003;60257;42.638;23.376;2023-09-08T10:16:46;15.75;15.75;10.25
72307;PMS5003;60257;42.638;23.376;2023-09-08T10:19:17;13.25;11.75;9.00
72307;PMS5003;60257;42.638;23.376;2023-09-08T10:21:46;12.75;12.75;9.00
72307;PMS5003;60257;42.638;23.376;2023-09-08T10:24:15;12.00;12.00;8.25
72307;PMS5003;60257;42.638;23.376;2023-09-08T10:26:51;12.75;12.75;8.25
72307;PMS5003;60257;42.638;23.376;2023-09-08T10:29:25;17.25;16.25;10.75
72307;PMS5003;60257;42.638;23.376;2023-09-08T10:31:52;12.25;12.25;8.00
72307;PMS5003;60257;42.638;23.376;2023-09-08T10:34:20;10.00;10.00;8.25
72307;PMS5003;60257;42.638;23.376;2023-09-08T10:36:48;15.75;15.00;10.00
72307;PMS5003;60257;42.638;23.376;2023-09-08T10:39:32;15.25;14.00;10.00
72307;PMS5003;60257;42.638;23.376;2023-09-08T10:47:18;15.75;14.75;10.75
72307;PMS5003;60257;42.638;23.376;2023-09-08T10:49:44;12.25;12.25;8.25
72307;PMS5003;60257;42.638;23.376;2023-09-08T10:52:11;13.50;13.50;7.50
72307;PMS5003;60257;42.638;23.376;2023-09-08T10:54:44;11.75;11.75;8.50
72307;PMS5003;60257;42.638;23.376;2023-09-08T11:00:00;12.50;12.50;9.25
72307;PMS5003;60257;42.638;23.376;2023-09-08T11:04:59;13.50;12.75;8.25
72307;PMS5003;60257;42.638;23.376;2023-09-08T11:07:25;12.25;12.25;9.25
72307;PMS5003;60257;42.638;23.376;2023-09-08T11:09:50;15.00;15.00;9.25
72307;PMS5003;60257;42.638;23.376;2023-09-08T11:12:16;17.75;17.00;10.75
72307;PMS5003;60257;42.638;23.376;2023-09-08T11:14:43;8.25;6.00;3.00
72307;PMS5003;60257;42.638;23.376;2023-09-08T11:17:08;13.00;13.00;9.75
72307;PMS5003;60257;42.638;23.376;2023-09-08T11:19:47;15.75;13.75;10.25
72307;PMS5003;60257;42.638;23.376;2023-09-08T11:22:17;15.25;15.25;10.25
72307;PMS5003;60257;42.638;23.376;2023-09-08T11:24:43;17.50;15.50;11.00
72307;PMS5003;60257;42.638;23.376;2023-09-08T11:27:12;16.25;14.25;11.50
72307;PMS5003;60257;42.638;23.376;2023-09-08T11:29:38;15.25;15.00;10.00
72307;PMS5003;60257;42.638;23.376;2023-09-08T11:32:07;14.25;13.25;8.25
72307;PMS5003;60257;42.638;23.376;2023-09-08T11:34:36;18.25;16.00;11.00
72307;PMS5003;60257;42.638;23.376;2023-09-08T11:37:20;13.75;13.75;10.25
72307;PMS5003;60257;42.638;23.376;2023-09-08T11:39:46;15.75;15.75;11.00
72307;PMS5003;60257;42.638;23.376;2023-09-08T11:42:13;15.75;15.75;12.00
72307;PMS5003;60257;42.638;23.376;2023-09-08T11:44:40;11.50;10.50;7.25
72307;PMS5003;60257;42.638;23.376;2023-09-08T11:47:07;16.25;14.50;11.25
72307;PMS5003;60257;42.638;23.376;2023-09-08T11:49:38;15.25;14.00;9.75
72307;PMS5003;60257;42.638;23.376;2023-09-08T11:52:06;17.75;17.75;12.50
72307;PMS5003;60257;42.638;23.376;2023-09-08T11:54:32;15.00;15.00;11.00
72307;PMS5003;60257;42.638;23.376;2023-09-08T11:56:59;15.25;14.00;9.75
72307;PMS5003;60257;42.638;23.376;2023-09-08T11:59:32;16.25;15.00;10.75
72307;PMS5003;60257;42.638;23.376;2023-09-08T12:01:59;15.25;15.25;11.00
72307;PMS5003;60257;42.638;23.376;2023-09-08T12:04:25;14.00;14.00;10.00
72307;PMS5003;60257;42.638;23.376;2023-09-08T12:06:51;17.00;17.00;11.25
72307;PMS5003;60257;42.638;23.376;2023-09-08T12:09:18;15.50;15.50;11.00
72307;PMS5003;60257;42.638;23.376;2023-09-08T12:11:46;17.00;15.75;10.25
72307;PMS5003;60257;42.638;23.376;2023-09-08T12:14:12;16.50;15.25;11.00
72307;PMS5003;60257;42.638;23.376;2023-09-08T12:16:39;14.75;14.25;10.50
72307;PMS5003;60257;42.638;23.376;2023-09-08T12:19:05;18.25;17.25;12.50
72307;PMS5003;60257;42.638;23.376;2023-09-08T12:21:32;17.25;15.75;11.25
72307;PMS5003;60257;42.638;23.376;2023-09-08T12:24:00;15.75;15.75;13.00
72307;PMS5003;60257;42.638;23.376;2023-09-08T12:26:26;14.25;14.25;10.00
72307;PMS5003;60257;42.638;23.376;2023-09-08T12:28:52;17.75;16.50;10.75
72307;PMS5003;60257;42.638;23.376;2023-09-08T12:31:18;15.00;15.00;11.00
72307;PMS5003;60257;42.638;23.376;2023-09-08T12:33:44;12.00;12.00;8.75
72307;PMS5003;60257;42.638;23.376;2023-09-08T12:36:16;17.50;17.00;12.25
72307;PMS5003;60257;42.638;23.376;2023-09-08T12:38:47;18.50;17.25;12.00
72307;PMS5003;60257;42.638;23.376;2023-09-08T12:41:15;17.00;17.00;12.25
72307;PMS5003;60257;42.638;23.376;2023-09-08T12:43:41;16.25;16.25;11.75
72307;PMS5003;60257;42.638;23.376;2023-09-08T12:46:07;17.50;17.50;12.00
72307;PMS5003;60257;42.638;23.376;2023-09-08T12:48:32;13.25;13.25;9.00
72307;PMS5003;60257;42.638;23.376;2023-09-08T12:50:58;18.50;16.50;12.00
72307;PMS5003;60257;42.638;23.376;2023-09-08T12:53:24;14.25;14.25;10.00
72307;PMS5003;60257;42.638;23.376;2023-09-08T12:55:49;17.00;14.50;12.25
72307;PMS5003;60257;42.638;23.376;2023-09-08T12:58:15;15.75;14.25;10.50
72307;PMS5003;60257;42.638;23.376;2023-09-08T13:00:42;18.00;18.00;11.00
72307;PMS5003;60257;42.638;23.376;2023-09-08T13:03:09;18.00;15.75;12.00
72307;PMS5003;60257;42.638;23.376;2023-09-08T13:05:35;13.25;13.25;10.75
72307;PMS5003;60257;42.638;23.376;2023-09-08T13:08:00;21.75;19.00;13.25
72307;PMS5003;60257;42.638;23.376;2023-09-08T13:10:26;16.00;16.00;12.00
72307;PMS5003;60257;42.638;23.376;2023-09-08T13:12:51;16.50;16.50;12.25
72307;PMS5003;60257;42.638;23.376;2023-09-08T13:15:17;18.00;16.50;10.00
72307;PMS5003;60257;42.638;23.376;2023-09-08T13:17:42;17.50;16.25;12.00
72307;PMS5003;60257;42.638;23.376;2023-09-08T13:20:08;14.25;12.25;8.25
72307;PMS5003;60257;42.638;23.376;2023-09-08T13:22:34;15.25;15.25;12.00
72307;PMS5003;60257;42.638;23.376;2023-09-08T13:25:00;14.50;14.25;9.00
72307;PMS5003;60257;42.638;23.376;2023-09-08T13:27:25;16.25;15.25;11.00
72307;PMS5003;60257;42.638;23.376;2023-09-08T13:29:53;18.00;18.00;11.50
72307;PMS5003;60257;42.638;23.376;2023-09-08T13:32:19;15.25;13.25;11.00
72307;PMS5003;60257;42.638;23.376;2023-09-08T13:34:44;15.25;15.25;11.00
72307;PMS5003;60257;42.638;23.376;2023-09-08T13:37:11;19.00;18.00;11.00
72307;PMS5003;60257;42.638;23.376;2023-09-08T13:39:37;17.00;16.50;11.50
72307;PMS5003;60257;42.638;23.376;2023-09-08T13:42:03;17.75;17.00;11.75
72307;PMS5003;60257;42.638;23.376;2023-09-08T13:44:29;12.25;10.75;9.50
72307;PMS5003;60257;42.638;23.376;2023-09-08T13:46:54;18.00;18.00;13.25
72307;PMS5003;60257;42.638;23.376;2023-09-08T13:49:20;19.50;17.25;11.25